sensor_id;sensor_type;location;lat;lon;timestamp;pressure;altitude;pressure_sealevel;temperature;humidity
5455;BME280;2750;49.050;9.250;2023-07-16T00:02:16;98623.59;;;21.11;100.00
5455;BME280;2750;49.050;9.250;2023-07-16T00:07:19;98605.00;;;21.59;100.00
5455;BME280;2750;49.050;9.250;2023-07-16T00:12:21;98597.00;;;21.78;100.00
5455;BME280;2750;49.050;9.250;2023-07-16T00:17:22;98595.72;;;21.82;100.00
5455;BME280;2750;49.050;9.250;2023-07-16T00:22:25;98627.47;;;22.09;100.00
5455;BME280;2750;49.050;9.250;2023-07-16T00:27:27;98626.59;;;22.18;100.00
5455;BME280;2750;49.050;9.250;2023-07-16T00:32:28;98636.19;;;22.64;100.00
5455;BME280;2750;49.050;9.250;2023-07-16T00:37:33;98602.06;;;22.97;100.00
5455;BME280;2750;49.050;9.250;2023-07-16T00:42:34;98599.72;;;22.40;100.00
5455;BME280;2750;49.050;9.250;2023-07-16T00:47:36;98608.47;;;22.23;100.00
5455;BME280;2750;49.050;9.250;2023-07-16T00:52:39;98605.69;;;21.98;100.00
5455;BME280;2750;49.050;9.250;2023-07-16T00:57:41;98595.59;;;22.38;100.00
5455;BME280;2750;49.050;9.250;2023-07-16T01:02:43;98596.13;;;21.87;100.00
5455;BME280;2750;49.050;9.250;2023-07-16T01:07:53;98585.56;;;21.87;100.00
5455;BME280;2750;49.050;9.250;2023-07-16T01:12:57;98631.22;;;21.42;100.00
5455;BME280;2750;49.050;9.250;2023-07-16T01:17:59;98669.56;;;21.08;100.00
5455;BME280;2750;49.050;9.250;2023-07-16T01:23:19;98645.03;;;20.69;100.00
5455;BME280;2750;49.050;9.250;2023-07-16T01:28:46;98643.06;;;20.52;100.00
5455;BME280;2750;49.050;9.250;2023-07-16T01:33:54;98673.00;;;20.41;100.00
5455;BME280;2750;49.050;9.250;2023-07-16T01:38:56;98673.00;;;20.41;100.00
5455;BME280;2750;49.050;9.250;2023-07-16T01:43:57;98690.22;;;20.45;100.00
5455;BME280;2750;49.050;9.250;2023-07-16T01:49:02;98685.28;;;20.62;100.00
5455;BME280;2750;49.050;9.250;2023-07-16T01:54:04;98686.25;;;20.80;100.00
5455;BME280;2750;49.050;9.250;2023-07-16T01:59:06;98686.41;;;20.88;100.00
5455;BME280;2750;49.050;9.250;2023-07-16T02:04:09;98673.34;;;20.96;100.00
5455;BME280;2750;49.050;9.250;2023-07-16T02:09:11;98684.72;;;21.35;99.76
5455;BME280;2750;49.050;9.250;2023-07-16T02:14:13;98719.63;;;21.19;100.00
5455;BME280;2750;49.050;9.250;2023-07-16T02:19:17;98718.63;;;21.20;100.00
5455;BME280;2750;49.050;9.250;2023-07-16T02:24:19;98691.56;;;21.18;100.00
5455;BME280;2750;49.050;9.250;2023-07-16T02:29:20;98700.59;;;21.25;99.20
5455;BME280;2750;49.050;9.250;2023-07-16T02:34:23;98693.59;;;21.43;97.87
5455;BME280;2750;49.050;9.250;2023-07-16T02:39:25;98707.19;;;21.68;97.44
5455;BME280;2750;49.050;9.250;2023-07-16T02:44:26;98718.25;;;21.81;96.13
5455;BME280;2750;49.050;9.250;2023-07-16T02:49:29;98724.72;;;21.59;96.59
5455;BME280;2750;49.050;9.250;2023-07-16T02:54:31;98727.22;;;21.61;95.97
5455;BME280;2750;49.050;9.250;2023-07-16T02:59:32;98725.00;;;21.46;96.65
5455;BME280;2750;49.050;9.250;2023-07-16T03:04:35;98713.97;;;21.80;95.27
5455;BME280;2750;49.050;9.250;2023-07-16T03:09:36;98714.31;;;21.58;95.77
5455;BME280;2750;49.050;9.250;2023-07-16T03:14:38;98719.72;;;21.46;96.35
5455;BME280;2750;49.050;9.250;2023-07-16T03:19:41;98701.16;;;21.19;95.93
5455;BME280;2750;49.050;9.250;2023-07-16T03:24:42;98730.06;;;21.11;97.13
5455;BME280;2750;49.050;9.250;2023-07-16T03:29:44;98732.28;;;21.16;97.37
5455;BME280;2750;49.050;9.250;2023-07-16T03:34:47;98750.59;;;21.17;95.84
5455;BME280;2750;49.050;9.250;2023-07-16T03:39:48;98749.91;;;21.25;96.37
5455;BME280;2750;49.050;9.250;2023-07-16T03:44:50;98769.44;;;20.84;96.66
5455;BME280;2750;49.050;9.250;2023-07-16T03:49:53;98769.06;;;21.17;95.21
5455;BME280;2750;49.050;9.250;2023-07-16T03:54:54;98770.47;;;21.12;95.61
5455;BME280;2750;49.050;9.250;2023-07-16T03:59:56;98780.41;;;20.98;95.80
5455;BME280;2750;49.050;9.250;2023-07-16T04:04:59;98794.72;;;20.96;94.99
5455;BME280;2750;49.050;9.250;2023-07-16T04:10:00;98825.75;;;21.13;93.69
5455;BME280;2750;49.050;9.250;2023-07-16T04:15:07;98828.25;;;21.24;92.36
5455;BME280;2750;49.050;9.250;2023-07-16T04:20:10;98839.16;;;21.00;91.86
5455;BME280;2750;49.050;9.250;2023-07-16T04:25:12;98834.19;;;20.58;92.45
5455;BME280;2750;49.050;9.250;2023-07-16T04:30:13;98827.75;;;20.81;90.13
5455;BME280;2750;49.050;9.250;2023-07-16T04:35:16;98831.06;;;20.73;90.46
5455;BME280;2750;49.050;9.250;2023-07-16T04:40:18;98829.66;;;20.79;90.09
5455;BME280;2750;49.050;9.250;2023-07-16T04:45:19;98837.19;;;20.83;90.74
5455;BME280;2750;49.050;9.250;2023-07-16T04:50:22;98834.22;;;21.17;88.63
5455;BME280;2750;49.050;9.250;2023-07-16T04:55:24;98850.50;;;20.82;90.30
5455;BME280;2750;49.050;9.250;2023-07-16T05:00:26;98864.78;;;20.70;90.66
5455;BME280;2750;49.050;9.250;2023-07-16T05:05:28;98856.66;;;20.92;89.59
5455;BME280;2750;49.050;9.250;2023-07-16T05:10:30;98869.47;;;21.06;89.72
5455;BME280;2750;49.050;9.250;2023-07-16T05:15:32;98864.41;;;20.84;89.58
5455;BME280;2750;49.050;9.250;2023-07-16T05:20:35;98874.19;;;21.03;88.54
5455;BME280;2750;49.050;9.250;2023-07-16T05:25:36;98889.88;;;21.54;87.55
5455;BME280;2750;49.050;9.250;2023-07-16T05:30:38;98881.31;;;22.00;86.14
5455;BME280;2750;49.050;9.250;2023-07-16T05:35:41;98890.72;;;22.21;86.51
5455;BME280;2750;49.050;9.250;2023-07-16T05:40:43;98890.69;;;22.40;84.34
5455;BME280;2750;49.050;9.250;2023-07-16T05:45:44;98886.88;;;22.99;83.14
5455;BME280;2750;49.050;9.250;2023-07-16T05:50:47;98890.56;;;22.32;83.79
5455;BME280;2750;49.050;9.250;2023-07-16T05:55:49;98884.53;;;23.41;81.38
5455;BME280;2750;49.050;9.250;2023-07-16T06:00:52;98898.72;;;22.68;81.85
5455;BME280;2750;49.050;9.250;2023-07-16T06:05:55;98912.56;;;23.16;80.92
5455;BME280;2750;49.050;9.250;2023-07-16T06:10:56;98912.56;;;23.44;79.17
5455;BME280;2750;49.050;9.250;2023-07-16T06:15:58;98907.06;;;24.51;76.11
5455;BME280;2750;49.050;9.250;2023-07-16T06:21:01;98893.34;;;24.30;75.99
5455;BME280;2750;49.050;9.250;2023-07-16T06:26:02;98913.13;;;22.83;81.07
5455;BME280;2750;49.050;9.250;2023-07-16T06:31:04;98909.56;;;22.65;80.72
5455;BME280;2750;49.050;9.250;2023-07-16T06:36:07;98923.72;;;22.83;79.47
5455;BME280;2750;49.050;9.250;2023-07-16T06:41:09;98919.22;;;22.93;79.96
5455;BME280;2750;49.050;9.250;2023-07-16T06:46:13;98921.47;;;23.88;77.88
5455;BME280;2750;49.050;9.250;2023-07-16T06:51:16;98926.00;;;23.60;77.96
5455;BME280;2750;49.050;9.250;2023-07-16T06:56:18;98912.84;;;24.21;75.43
5455;BME280;2750;49.050;9.250;2023-07-16T07:01:19;98917.94;;;24.14;75.93
5455;BME280;2750;49.050;9.250;2023-07-16T07:06:22;98913.09;;;24.36;73.81
5455;BME280;2750;49.050;9.250;2023-07-16T07:11:24;98917.28;;;24.20;74.54
5455;BME280;2750;49.050;9.250;2023-07-16T07:16:25;98912.31;;;24.69;73.43
5455;BME280;2750;49.050;9.250;2023-07-16T07:21:28;98919.84;;;23.77;73.94
5455;BME280;2750;49.050;9.250;2023-07-16T07:26:30;98917.91;;;25.84;70.84
5455;BME280;2750;49.050;9.250;2023-07-16T07:31:31;98909.94;;;27.81;65.28
5455;BME280;2750;49.050;9.250;2023-07-16T07:36:34;98920.16;;;27.78;64.72
5455;BME280;2750;49.050;9.250;2023-07-16T07:41:36;98916.09;;;28.04;63.20
5455;BME280;2750;49.050;9.250;2023-07-16T07:46:37;98920.00;;;28.91;60.17
5455;BME280;2750;49.050;9.250;2023-07-16T07:51:40;98925.97;;;28.27;62.56
5455;BME280;2750;49.050;9.250;2023-07-16T07:56:42;98917.28;;;30.07;58.59
5455;BME280;2750;49.050;9.250;2023-07-16T08:01:43;98925.44;;;29.63;58.90
5455;BME280;2750;49.050;9.250;2023-07-16T08:06:46;98929.41;;;29.31;60.79
5455;BME280;2750;49.050;9.250;2023-07-16T08:11:48;98931.19;;;28.20;60.57
5455;BME280;2750;49.050;9.250;2023-07-16T08:16:49;98935.50;;;27.98;61.88
5455;BME280;2750;49.050;9.250;2023-07-16T08:21:52;98929.63;;;28.03;61.27
5455;BME280;2750;49.050;9.250;2023-07-16T08:26:53;98934.34;;;26.76;63.25
5455;BME280;2750;49.050;9.250;2023-07-16T08:31:55;98912.53;;;27.36;61.13
5455;BME280;2750;49.050;9.250;2023-07-16T08:36:58;98922.03;;;27.69;60.92
5455;BME280;2750;49.050;9.250;2023-07-16T08:41:59;98907.00;;;27.37;61.29
5455;BME280;2750;49.050;9.250;2023-07-16T08:47:01;98914.66;;;27.09;61.21
5455;BME280;2750;49.050;9.250;2023-07-16T08:52:05;98913.44;;;26.08;63.16
5455;BME280;2750;49.050;9.250;2023-07-16T08:57:08;98916.78;;;25.94;62.53
5455;BME280;2750;49.050;9.250;2023-07-16T09:02:10;98916.38;;;26.94;61.84
5455;BME280;2750;49.050;9.250;2023-07-16T09:07:13;98934.88;;;26.72;62.34
5455;BME280;2750;49.050;9.250;2023-07-16T09:12:14;98932.13;;;28.04;61.70
5455;BME280;2750;49.050;9.250;2023-07-16T09:17:20;98934.16;;;27.41;61.68
5455;BME280;2750;49.050;9.250;2023-07-16T09:22:23;98927.63;;;28.28;59.06
5455;BME280;2750;49.050;9.250;2023-07-16T09:27:28;98946.78;;;27.55;60.41
5455;BME280;2750;49.050;9.250;2023-07-16T09:32:33;98923.66;;;27.08;61.16
5455;BME280;2750;49.050;9.250;2023-07-16T09:37:37;98931.75;;;26.60;61.56
5455;BME280;2750;49.050;9.250;2023-07-16T09:42:40;98937.69;;;27.72;60.67
5455;BME280;2750;49.050;9.250;2023-07-16T09:47:42;98924.75;;;27.61;60.82
5455;BME280;2750;49.050;9.250;2023-07-16T09:52:46;98924.53;;;27.32;60.78
5455;BME280;2750;49.050;9.250;2023-07-16T09:57:49;98917.84;;;27.75;60.55
5455;BME280;2750;49.050;9.250;2023-07-16T10:02:52;98918.22;;;27.64;61.08
5455;BME280;2750;49.050;9.250;2023-07-16T10:07:56;98917.44;;;28.09;59.38
5455;BME280;2750;49.050;9.250;2023-07-16T10:13:02;98904.25;;;27.84;60.40
5455;BME280;2750;49.050;9.250;2023-07-16T10:18:03;98922.22;;;27.90;60.11
5455;BME280;2750;49.050;9.250;2023-07-16T10:23:13;98922.50;;;27.95;60.30
5455;BME280;2750;49.050;9.250;2023-07-16T10:28:15;98928.63;;;27.81;60.08
5455;BME280;2750;49.050;9.250;2023-07-16T10:33:16;98914.44;;;28.03;59.45
5455;BME280;2750;49.050;9.250;2023-07-16T10:38:19;98922.38;;;27.66;60.46
5455;BME280;2750;49.050;9.250;2023-07-16T10:43:21;98914.63;;;27.48;59.47
5455;BME280;2750;49.050;9.250;2023-07-16T10:48:24;98903.22;;;26.93;61.14
5455;BME280;2750;49.050;9.250;2023-07-16T10:53:27;98901.72;;;27.29;59.97
5455;BME280;2750;49.050;9.250;2023-07-16T10:58:29;98907.00;;;27.37;60.78
5455;BME280;2750;49.050;9.250;2023-07-16T11:03:31;98900.56;;;27.85;58.99
5455;BME280;2750;49.050;9.250;2023-07-16T11:08:34;98887.41;;;27.61;58.42
5455;BME280;2750;49.050;9.250;2023-07-16T11:13:35;98908.75;;;26.75;61.26
5455;BME280;2750;49.050;9.250;2023-07-16T11:18:37;98900.84;;;27.37;59.35
5455;BME280;2750;49.050;9.250;2023-07-16T11:23:40;98891.22;;;27.89;59.06
5455;BME280;2750;49.050;9.250;2023-07-16T11:28:42;98884.66;;;27.92;58.68
5455;BME280;2750;49.050;9.250;2023-07-16T11:33:44;98896.63;;;27.50;59.87
5455;BME280;2750;49.050;9.250;2023-07-16T11:38:48;98881.97;;;28.52;58.43
5455;BME280;2750;49.050;9.250;2023-07-16T11:43:50;98876.13;;;29.72;57.11
5455;BME280;2750;49.050;9.250;2023-07-16T11:48:51;98861.38;;;28.75;55.87
5455;BME280;2750;49.050;9.250;2023-07-16T11:53:55;98862.84;;;28.92;57.03
5455;BME280;2750;49.050;9.250;2023-07-16T11:58:57;98864.75;;;28.55;57.94
5455;BME280;2750;49.050;9.250;2023-07-16T12:03:59;98869.00;;;29.08;58.46
5455;BME280;2750;49.050;9.250;2023-07-16T12:09:02;98848.72;;;28.98;56.06
5455;BME280;2750;49.050;9.250;2023-07-16T12:14:04;98847.06;;;28.83;55.73
5455;BME280;2750;49.050;9.250;2023-07-16T12:19:07;98843.66;;;29.04;58.27
5455;BME280;2750;49.050;9.250;2023-07-16T12:24:10;98834.34;;;29.93;56.61
5455;BME280;2750;49.050;9.250;2023-07-16T12:29:12;98827.53;;;30.80;54.07
5455;BME280;2750;49.050;9.250;2023-07-16T12:34:13;98825.88;;;30.17;54.52
5455;BME280;2750;49.050;9.250;2023-07-16T12:39:16;98827.78;;;29.17;58.52
5455;BME280;2750;49.050;9.250;2023-07-16T12:44:17;98832.47;;;29.15;55.96
5455;BME280;2750;49.050;9.250;2023-07-16T12:49:19;98825.47;;;29.14;56.41
5455;BME280;2750;49.050;9.250;2023-07-16T12:54:22;98831.13;;;29.40;56.52
5455;BME280;2750;49.050;9.250;2023-07-16T12:59:23;98824.69;;;30.47;55.18
5455;BME280;2750;49.050;9.250;2023-07-16T13:04:25;98829.31;;;30.66;54.66
5455;BME280;2750;49.050;9.250;2023-07-16T13:09:28;98824.81;;;31.21;54.06
5455;BME280;2750;49.050;9.250;2023-07-16T13:14:30;98817.53;;;31.95;52.07
5455;BME280;2750;49.050;9.250;2023-07-16T13:19:32;98812.00;;;31.10;53.22
5455;BME280;2750;49.050;9.250;2023-07-16T13:24:35;98824.97;;;30.31;54.91
5455;BME280;2750;49.050;9.250;2023-07-16T13:29:36;98807.41;;;30.56;53.12
5455;BME280;2750;49.050;9.250;2023-07-16T13:34:38;98798.50;;;31.70;52.75
5455;BME280;2750;49.050;9.250;2023-07-16T13:39:41;98799.09;;;30.86;53.27
5455;BME280;2750;49.050;9.250;2023-07-16T13:44:42;98803.25;;;30.47;54.93
5455;BME280;2750;49.050;9.250;2023-07-16T13:49:44;98793.25;;;30.75;54.44
5455;BME280;2750;49.050;9.250;2023-07-16T13:54:47;98789.84;;;31.62;52.04
5455;BME280;2750;49.050;9.250;2023-07-16T13:59:48;98798.03;;;31.47;52.77
5455;BME280;2750;49.050;9.250;2023-07-16T14:04:50;98796.00;;;31.49;52.63
5455;BME280;2750;49.050;9.250;2023-07-16T14:09:54;98797.44;;;32.50;51.25
5455;BME280;2750;49.050;9.250;2023-07-16T14:14:55;98789.00;;;31.74;52.17
5455;BME280;2750;49.050;9.250;2023-07-16T14:19:57;98781.97;;;32.13;51.89
5455;BME280;2750;49.050;9.250;2023-07-16T14:25:00;98785.09;;;31.64;51.83
5455;BME280;2750;49.050;9.250;2023-07-16T14:30:03;98787.06;;;30.68;53.56
5455;BME280;2750;49.050;9.250;2023-07-16T14:35:05;98783.22;;;31.64;53.10
5455;BME280;2750;49.050;9.250;2023-07-16T14:40:09;98787.72;;;31.44;52.66
5455;BME280;2750;49.050;9.250;2023-07-16T14:45:11;98795.34;;;30.11;54.12
5455;BME280;2750;49.050;9.250;2023-07-16T14:50:13;98792.34;;;30.55;52.21
5455;BME280;2750;49.050;9.250;2023-07-16T14:55:15;98798.38;;;30.64;52.91
5455;BME280;2750;49.050;9.250;2023-07-16T15:00:17;98795.56;;;30.44;52.82
5455;BME280;2750;49.050;9.250;2023-07-16T15:05:19;98793.22;;;31.10;51.23
5455;BME280;2750;49.050;9.250;2023-07-16T15:10:22;98803.16;;;30.13;52.36
5455;BME280;2750;49.050;9.250;2023-07-16T15:15:24;98795.06;;;29.78;53.02
5455;BME280;2750;49.050;9.250;2023-07-16T15:20:26;98795.94;;;30.07;52.78
5455;BME280;2750;49.050;9.250;2023-07-16T15:25:29;98799.97;;;30.24;52.11
5455;BME280;2750;49.050;9.250;2023-07-16T15:30:30;98778.22;;;31.35;50.79
5455;BME280;2750;49.050;9.250;2023-07-16T15:35:32;98775.78;;;31.66;50.37
5455;BME280;2750;49.050;9.250;2023-07-16T15:40:35;98770.00;;;31.83;50.21
5455;BME280;2750;49.050;9.250;2023-07-16T15:45:36;98781.44;;;31.04;50.99
5455;BME280;2750;49.050;9.250;2023-07-16T15:50:38;98769.72;;;31.25;51.20
5455;BME280;2750;49.050;9.250;2023-07-16T15:55:41;98762.94;;;32.34;49.81
5455;BME280;2750;49.050;9.250;2023-07-16T16:00:42;98773.28;;;31.98;49.18
5455;BME280;2750;49.050;9.250;2023-07-16T16:05:44;98778.22;;;31.48;49.90
5455;BME280;2750;49.050;9.250;2023-07-16T16:10:49;98766.28;;;32.10;49.35
5455;BME280;2750;49.050;9.250;2023-07-16T16:15:51;98764.34;;;31.25;49.55
5455;BME280;2750;49.050;9.250;2023-07-16T16:20:53;98758.44;;;31.62;50.37
5455;BME280;2750;49.050;9.250;2023-07-16T16:25:56;98758.72;;;32.51;48.39
5455;BME280;2750;49.050;9.250;2023-07-16T16:30:57;98762.47;;;32.50;48.75
5455;BME280;2750;49.050;9.250;2023-07-16T16:35:59;98772.53;;;32.75;48.44
5455;BME280;2750;49.050;9.250;2023-07-16T16:41:03;98766.72;;;31.81;49.24
5455;BME280;2750;49.050;9.250;2023-07-16T16:46:08;98760.31;;;30.13;51.23
5455;BME280;2750;49.050;9.250;2023-07-16T16:51:10;98768.44;;;30.60;50.49
5455;BME280;2750;49.050;9.250;2023-07-16T16:56:13;98760.50;;;30.80;49.90
5455;BME280;2750;49.050;9.250;2023-07-16T17:01:14;98771.16;;;31.08;49.15
5455;BME280;2750;49.050;9.250;2023-07-16T17:06:18;98772.41;;;30.36;50.82
5455;BME280;2750;49.050;9.250;2023-07-16T17:11:21;98785.31;;;29.92;51.62
5455;BME280;2750;49.050;9.250;2023-07-16T17:16:22;98785.41;;;29.35;52.05
5455;BME280;2750;49.050;9.250;2023-07-16T17:21:24;98781.28;;;29.18;52.98
5455;BME280;2750;49.050;9.250;2023-07-16T17:26:28;98793.41;;;28.99;52.32
5455;BME280;2750;49.050;9.250;2023-07-16T17:31:29;98788.28;;;28.54;53.38
5455;BME280;2750;49.050;9.250;2023-07-16T17:36:31;98775.69;;;28.62;54.38
5455;BME280;2750;49.050;9.250;2023-07-16T17:41:34;98782.47;;;28.79;53.81
5455;BME280;2750;49.050;9.250;2023-07-16T17:46:38;98785.44;;;28.84;53.54
5455;BME280;2750;49.050;9.250;2023-07-16T17:51:39;98783.25;;;28.73;53.85
5455;BME280;2750;49.050;9.250;2023-07-16T17:56:42;98796.22;;;29.69;52.52
5455;BME280;2750;49.050;9.250;2023-07-16T18:01:44;98801.00;;;29.53;53.38
5455;BME280;2750;49.050;9.250;2023-07-16T18:06:46;98798.41;;;28.87;54.11
5455;BME280;2750;49.050;9.250;2023-07-16T18:11:49;98799.19;;;28.81;53.69
5455;BME280;2750;49.050;9.250;2023-07-16T18:16:51;98796.50;;;28.67;54.37
5455;BME280;2750;49.050;9.250;2023-07-16T18:21:52;98795.75;;;28.58;53.87
5455;BME280;2750;49.050;9.250;2023-07-16T18:26:55;98801.41;;;27.96;55.79
5455;BME280;2750;49.050;9.250;2023-07-16T18:31:57;98811.84;;;27.83;56.20
5455;BME280;2750;49.050;9.250;2023-07-16T18:36:58;98809.19;;;27.83;56.23
5455;BME280;2750;49.050;9.250;2023-07-16T18:42:03;98816.91;;;27.78;56.78
5455;BME280;2750;49.050;9.250;2023-07-16T18:47:05;98804.41;;;27.56;58.01
5455;BME280;2750;49.050;9.250;2023-07-16T18:52:07;98807.97;;;27.48;58.06
5455;BME280;2750;49.050;9.250;2023-07-16T18:57:09;98803.59;;;27.55;57.16
5455;BME280;2750;49.050;9.250;2023-07-16T19:02:11;98794.75;;;27.55;57.49
5455;BME280;2750;49.050;9.250;2023-07-16T19:07:13;98803.13;;;27.52;57.62
5455;BME280;2750;49.050;9.250;2023-07-16T19:12:16;98797.66;;;27.15;59.01
5455;BME280;2750;49.050;9.250;2023-07-16T19:17:17;98807.66;;;26.90;63.13
5455;BME280;2750;49.050;9.250;2023-07-16T19:22:19;98809.91;;;26.54;63.51
5455;BME280;2750;49.050;9.250;2023-07-16T19:27:22;98822.31;;;26.23;63.44
5455;BME280;2750;49.050;9.250;2023-07-16T19:32:23;98829.63;;;25.88;63.33
5455;BME280;2750;49.050;9.250;2023-07-16T19:37:25;98836.78;;;25.88;62.53
5455;BME280;2750;49.050;9.250;2023-07-16T19:42:30;98834.97;;;26.29;62.63
5455;BME280;2750;49.050;9.250;2023-07-16T19:47:32;98846.63;;;25.79;64.05
5455;BME280;2750;49.050;9.250;2023-07-16T19:52:34;98849.44;;;25.11;65.19
5455;BME280;2750;49.050;9.250;2023-07-16T19:57:37;98854.94;;;25.10;65.01
5455;BME280;2750;49.050;9.250;2023-07-16T20:02:39;98850.50;;;25.35;66.10
5455;BME280;2750;49.050;9.250;2023-07-16T20:07:41;98853.00;;;25.36;68.31
5455;BME280;2750;49.050;9.250;2023-07-16T20:12:44;98859.13;;;25.20;68.24
5455;BME280;2750;49.050;9.250;2023-07-16T20:17:46;98868.41;;;25.16;67.13
5455;BME280;2750;49.050;9.250;2023-07-16T20:22:48;98868.06;;;25.19;67.04
5455;BME280;2750;49.050;9.250;2023-07-16T20:27:55;98866.81;;;24.90;68.78
5455;BME280;2750;49.050;9.250;2023-07-16T20:32:57;98881.03;;;24.55;69.03
5455;BME280;2750;49.050;9.250;2023-07-16T20:38:00;98872.97;;;24.39;68.87
5455;BME280;2750;49.050;9.250;2023-07-16T20:43:03;98880.25;;;24.11;68.61
5455;BME280;2750;49.050;9.250;2023-07-16T20:48:04;98880.09;;;23.95;68.88
5455;BME280;2750;49.050;9.250;2023-07-16T20:53:06;98889.78;;;23.23;70.96
5455;BME280;2750;49.050;9.250;2023-07-16T20:58:09;98885.28;;;23.33;73.14
5455;BME280;2750;49.050;9.250;2023-07-16T21:03:11;98883.91;;;23.29;73.92
5455;BME280;2750;49.050;9.250;2023-07-16T21:08:13;98895.72;;;23.08;74.76
5455;BME280;2750;49.050;9.250;2023-07-16T21:13:16;98900.22;;;23.07;73.98
5455;BME280;2750;49.050;9.250;2023-07-16T21:18:18;98908.94;;;23.17;72.94
5455;BME280;2750;49.050;9.250;2023-07-16T21:23:21;98908.97;;;23.35;72.52
5455;BME280;2750;49.050;9.250;2023-07-16T21:28:24;98911.78;;;23.33;72.47
5455;BME280;2750;49.050;9.250;2023-07-16T21:33:26;98918.63;;;23.54;72.41
5455;BME280;2750;49.050;9.250;2023-07-16T21:38:27;98917.97;;;23.52;72.28
5455;BME280;2750;49.050;9.250;2023-07-16T21:43:30;98913.66;;;23.68;71.91
5455;BME280;2750;49.050;9.250;2023-07-16T21:48:32;98923.78;;;23.73;73.31
5455;BME280;2750;49.050;9.250;2023-07-16T21:53:33;98908.50;;;23.67;73.24
5455;BME280;2750;49.050;9.250;2023-07-16T21:58:36;98910.41;;;23.74;73.65
5455;BME280;2750;49.050;9.250;2023-07-16T22:03:38;98900.03;;;23.63;73.73
5455;BME280;2750;49.050;9.250;2023-07-16T22:08:39;98908.72;;;23.28;73.58
5455;BME280;2750;49.050;9.250;2023-07-16T22:13:42;98915.91;;;23.18;75.03
5455;BME280;2750;49.050;9.250;2023-07-16T22:18:44;98914.50;;;22.87;75.75
5455;BME280;2750;49.050;9.250;2023-07-16T22:23:45;98920.00;;;22.76;76.25
5455;BME280;2750;49.050;9.250;2023-07-16T22:28:48;98922.63;;;22.76;75.95
5455;BME280;2750;49.050;9.250;2023-07-16T22:33:50;98927.66;;;22.60;75.93
5455;BME280;2750;49.050;9.250;2023-07-16T22:38:51;98929.59;;;22.67;76.17
5455;BME280;2750;49.050;9.250;2023-07-16T22:43:54;98919.75;;;22.97;75.16
5455;BME280;2750;49.050;9.250;2023-07-16T22:48:56;98931.19;;;22.97;74.96
5455;BME280;2750;49.050;9.250;2023-07-16T22:53:57;98927.94;;;22.76;76.41
5455;BME280;2750;49.050;9.250;2023-07-16T22:59:01;98935.47;;;22.71;76.38
5455;BME280;2750;49.050;9.250;2023-07-16T23:04:03;98935.84;;;22.66;76.57
5455;BME280;2750;49.050;9.250;2023-07-16T23:09:04;98945.78;;;22.55;76.78
5455;BME280;2750;49.050;9.250;2023-07-16T23:14:08;98949.25;;;22.65;77.76
5455;BME280;2750;49.050;9.250;2023-07-16T23:19:10;98945.25;;;22.32;79.07
5455;BME280;2750;49.050;9.250;2023-07-16T23:24:11;98945.22;;;22.51;77.71
5455;BME280;2750;49.050;9.250;2023-07-16T23:29:14;98948.06;;;22.21;76.54
5455;BME280;2750;49.050;9.250;2023-07-16T23:34:16;98947.94;;;22.03;76.46
5455;BME280;2750;49.050;9.250;2023-07-16T23:39:17;98950.25;;;21.68;80.34
5455;BME280;2750;49.050;9.250;2023-07-16T23:44:21;98947.31;;;21.71;78.97
5455;BME280;2750;49.050;9.250;2023-07-16T23:49:22;98949.09;;;21.51;77.99
5455;BME280;2750;49.050;9.250;2023-07-16T23:54:24;98947.44;;;21.60;78.62
5455;BME280;2750;49.050;9.250;2023-07-16T23:59:27;98955.53;;;21.68;79.28
